KFLGKPAN

Guest
Details From KFLG - Flagstaff Pulliam
To KPAN - PAYSON
Flight Number -
Tags generated
Created
Modified
Stats Distance 56 nm / 104 km
Max Altitude 900 ft / 274 m
Waypoints 3
Social Downloads 0
Likes 0
Share VATSIM

Download

Looking for another format? Having issues loading an existing format? Contact us
Advertisement - Login to hide

Notes

Basic altitude profile: - Ascent Rate: 2500ft/min - Ascent Speed: 250kts - Cruise Altitude: 35000ft - Cruise Speed: 420kts - Descent Rate: 1500ft/min - Descent Speed: 250kts Options: - Use NATs: yes - Use PACOTS: yes - Use low airways: yes - Use high airways: yes

Route

KFLG NABOB KPAN

ID Type Via Altitude Latitude Longitude Leg Dist Tot Dist Heading (true) Name
O KFLG APT - 0 ft / 0 m 35.13845˚ -111.67122˚ - 0 nm - Flagstaff Pulliam
NABOB FIX - 900 ft / 274 m 34.32794˚ -111.31497˚ 51 nm 51 nm 160° / 160° -
O KPAN APT - 0 ft / 0 m 34.25683˚ -111.33935˚ 4 nm 56 nm 196° / 196° PAYSON

Altitude Profile

Advertisement - Login to hide

KFLG

Details ICAO KFLG (FLG)
Name Flagstaff Pulliam
Region United States
Timezone America/Phoenix (UTC-7.0)
Stats Elevation 7,011 ft / 2,137 m (AMSL)
Location 35.138455° -111.671215°
Runways 1
Magnetic Variation 10.464° E

METAR

KFLG 110657Z AUTO 09005KT 10SM CLR M04/M23 A3049 RMK AO2 SLP309 T10441228 401001100

Decode

TAF

TAF KFLG 110520Z 1106/1206 06010KT P6SM BKN250

Decode

Departure Runways

ID Width Length Bearing (true) Bearing (mag) Surface Threshold Offset Overrun Length
03 150 ft / 46 m 7,003 ft / 2,135 m 41.03° 30.57° Asphalt 0 ft / 0 m 0 ft / 0 m
21 150 ft / 46 m 7,003 ft / 2,135 m 221.04° 210.58° Asphalt 0 ft / 0 m 0 ft / 0 m

KPAN

Details ICAO KPAN
Name PAYSON
Region United States
Timezone America/Phoenix (UTC-7.0)
Stats Elevation 5,157 ft / 1,572 m (AMSL)
Location 34.256834° -111.339348°
Runways 1
Magnetic Variation 10.225° E

METAR

KPAN 110735Z AUTO VRB04G10KT 10SM CLR 09/M25 A3039 RMK AO2

Decode

TAF

Not found

Destination Runways

ID Width Length Bearing (true) Bearing (mag) Surface Threshold Offset Overrun Length
06 75 ft / 23 m 5,402 ft / 1,646 m 75.70° 65.47° Asphalt 0 ft / 0 m 150 ft / 46 m
24 75 ft / 23 m 5,402 ft / 1,646 m 255.71° 245.48° Asphalt 0 ft / 0 m 100 ft / 30 m